Glenburn, ND (58740)

8:22 AM CST on December 27, 2014 (GMT -0600)
APRSWXNET Glenburn ND US | Change Station
CLOSE
Current Station
Personal Weather Station
Location: Glenburn, ND
Elevation: 1574 ft
Nearby Weather Stations

Elev 1574 ft 48.45 °N, 101.22 °W | Updated 23 minutes ago

Overcast
Overcast
16 °F
Feels Like 10 °F
N
4
Wind Variable Wind from WNW
Gusts 0.0 mph

Today
High -- | Low -- °F
--% Chance of Precip.
Yesterday
High -- | Low -- °F
Precip. -- in
8:36 AM 4:56 PM
Waxing Crescent, 37% visible
Pressure 30.14 in
Visibility 10.0 miles
Clouds Overcast 7000 ft
Windchill 10 °F
Dew Point 13 °F
Humidity 86%
Rainfall -999.00 in
Snow Depth Not available.
UV 0 out of 12
Pollen .10 out of 12
Air Quality Not available.
Flu Activity Not available.
METAR KMIB 271358Z AUTO 27006KT 10SM OVC070 M08/M09 A3002 RMK AO2 SLP207 T10851095 $

More Conditions Fewer Conditions

Pressure 30.14 in
Visibility 10.0 miles
Clouds Overcast 7000 ft
Windchill 10 °F
Dew Point 13 °F
Humidity 86%
Rainfall -999.00 in
Snow Depth Not available.
UV 0 out of 12
Pollen .10 out of 12
Air Quality Not available.
Flu Activity Not available.
METAR KMIB 271358Z AUTO 27006KT 10SM OVC070 M08/M09 A3002 RMK AO2 SLP207 T10851095 $

More Conditions Fewer Conditions

10-Day Weather Forecast

Almanac

Astronomy

Dec. 27, 2014 Rise Set
Actual Time
Civil Twilight
Nautical Twilight
Astronomical Twilight
Moon
Length of Visible Light
Length of Day
Tomorrow will be .
, % of the Moon is Illuminated

Today's Extremes

State Highs State Lows

Community

WunderPhotos

Upload Photos

1,780,916 photos uploaded!

WunderBlogs® & News

Nearby

Air Quality

  Air Quality AQ Index Pollutant
Not available.

Snow Depth

Station Depth Elevation

Earthquake Activity

City Distance Mag. Time & Date
Minimum magnitude displayed is 2.5.

Coastal Water Temperatures

Place Temperature

Nearby Weather Stations